sensor_id;sensor_type;location;lat;lon;timestamp;P1;durP1;ratioP1;P2;durP2;ratioP2
9496;SDS011;4786;51.270;4.456;2023-06-22T00:01:42;3.70;;;3.40;;
9496;SDS011;4786;51.270;4.456;2023-06-22T00:04:08;4.60;;;3.20;;
9496;SDS011;4786;51.270;4.456;2023-06-22T00:06:34;5.85;;;3.30;;
9496;SDS011;4786;51.270;4.456;2023-06-22T00:09:00;3.35;;;3.00;;
9496;SDS011;4786;51.270;4.456;2023-06-22T00:11:26;3.47;;;2.97;;
9496;SDS011;4786;51.270;4.456;2023-06-22T00:13:52;5.43;;;3.70;;
9496;SDS011;4786;51.270;4.456;2023-06-22T00:16:19;3.53;;;3.22;;
9496;SDS011;4786;51.270;4.456;2023-06-22T00:18:45;6.90;;;3.20;;
9496;SDS011;4786;51.270;4.456;2023-06-22T00:21:12;4.80;;;3.03;;
9496;SDS011;4786;51.270;4.456;2023-06-22T00:23:38;4.07;;;3.25;;
9496;SDS011;4786;51.270;4.456;2023-06-22T00:26:05;4.47;;;3.65;;
9496;SDS011;4786;51.270;4.456;2023-06-22T00:28:31;4.03;;;3.60;;
9496;SDS011;4786;51.270;4.456;2023-06-22T00:30:56;4.55;;;3.65;;
9496;SDS011;4786;51.270;4.456;2023-06-22T00:33:22;5.38;;;3.70;;
9496;SDS011;4786;51.270;4.456;2023-06-22T00:35:49;3.70;;;3.50;;
9496;SDS011;4786;51.270;4.456;2023-06-22T00:38:17;4.50;;;4.10;;
9496;SDS011;4786;51.270;4.456;2023-06-22T00:40:44;4.65;;;4.05;;
9496;SDS011;4786;51.270;4.456;2023-06-22T00:43:09;4.90;;;3.90;;
9496;SDS011;4786;51.270;4.456;2023-06-22T00:45:36;4.60;;;3.72;;
9496;SDS011;4786;51.270;4.456;2023-06-22T00:48:01;5.30;;;3.60;;
9496;SDS011;4786;51.270;4.456;2023-06-22T00:50:29;4.57;;;3.40;;
9496;SDS011;4786;51.270;4.456;2023-06-22T00:52:59;3.55;;;3.25;;
9496;SDS011;4786;51.270;4.456;2023-06-22T00:55:29;3.67;;;3.27;;
9496;SDS011;4786;51.270;4.456;2023-06-22T00:57:56;4.32;;;3.80;;
9496;SDS011;4786;51.270;4.456;2023-06-22T01:00:24;5.20;;;4.10;;
9496;SDS011;4786;51.270;4.456;2023-06-22T01:02:51;4.23;;;3.50;;
9496;SDS011;4786;51.270;4.456;2023-06-22T01:05:18;3.42;;;3.13;;
9496;SDS011;4786;51.270;4.456;2023-06-22T01:12:47;5.07;;;3.37;;
9496;SDS011;4786;51.270;4.456;2023-06-22T01:18:08;4.47;;;3.67;;
9496;SDS011;4786;51.270;4.456;2023-06-22T01:20:34;3.90;;;3.50;;
9496;SDS011;4786;51.270;4.456;2023-06-22T01:31:27;5.33;;;4.13;;
9496;SDS011;4786;51.270;4.456;2023-06-22T01:33:57;6.50;;;4.20;;
9496;SDS011;4786;51.270;4.456;2023-06-22T01:36:26;5.17;;;3.83;;
9496;SDS011;4786;51.270;4.456;2023-06-22T01:38:53;7.27;;;3.90;;
9496;SDS011;4786;51.270;4.456;2023-06-22T01:41:19;3.83;;;3.47;;
9496;SDS011;4786;51.270;4.456;2023-06-22T01:43:47;5.90;;;4.03;;
9496;SDS011;4786;51.270;4.456;2023-06-22T01:46:14;4.30;;;3.90;;
9496;SDS011;4786;51.270;4.456;2023-06-22T01:48:41;4.20;;;3.80;;
9496;SDS011;4786;51.270;4.456;2023-06-22T01:51:07;4.57;;;3.80;;
9496;SDS011;4786;51.270;4.456;2023-06-22T01:53:33;4.00;;;3.60;;
9496;SDS011;4786;51.270;4.456;2023-06-22T01:55:59;4.00;;;3.63;;
9496;SDS011;4786;51.270;4.456;2023-06-22T01:58:26;5.00;;;4.17;;
9496;SDS011;4786;51.270;4.456;2023-06-22T02:01:10;6.27;;;3.90;;
9496;SDS011;4786;51.270;4.456;2023-06-22T02:03:48;4.23;;;3.83;;
9496;SDS011;4786;51.270;4.456;2023-06-22T02:06:30;5.73;;;4.17;;
9496;SDS011;4786;51.270;4.456;2023-06-22T02:09:01;5.90;;;4.20;;
9496;SDS011;4786;51.270;4.456;2023-06-22T02:11:30;5.93;;;3.90;;
9496;SDS011;4786;51.270;4.456;2023-06-22T02:13:58;4.87;;;4.20;;
9496;SDS011;4786;51.270;4.456;2023-06-22T02:16:24;5.40;;;3.57;;
9496;SDS011;4786;51.270;4.456;2023-06-22T02:18:55;4.73;;;4.30;;
9496;SDS011;4786;51.270;4.456;2023-06-22T02:21:23;4.10;;;3.80;;
9496;SDS011;4786;51.270;4.456;2023-06-22T02:23:49;6.40;;;3.63;;
9496;SDS011;4786;51.270;4.456;2023-06-22T02:26:16;5.37;;;4.03;;
9496;SDS011;4786;51.270;4.456;2023-06-22T02:28:43;5.90;;;4.33;;
9496;SDS011;4786;51.270;4.456;2023-06-22T02:31:09;3.80;;;3.50;;
9496;SDS011;4786;51.270;4.456;2023-06-22T02:33:35;4.80;;;4.40;;
9496;SDS011;4786;51.270;4.456;2023-06-22T02:36:01;6.00;;;4.30;;
9496;SDS011;4786;51.270;4.456;2023-06-22T02:38:30;4.60;;;4.20;;
9496;SDS011;4786;51.270;4.456;2023-06-22T02:40:59;6.13;;;4.63;;
9496;SDS011;4786;51.270;4.456;2023-06-22T02:43:26;6.00;;;4.67;;
9496;SDS011;4786;51.270;4.456;2023-06-22T02:45:51;4.90;;;4.50;;
9496;SDS011;4786;51.270;4.456;2023-06-22T02:48:17;5.00;;;4.43;;
9496;SDS011;4786;51.270;4.456;2023-06-22T02:50:43;4.80;;;3.80;;
9496;SDS011;4786;51.270;4.456;2023-06-22T02:53:09;4.30;;;3.90;;
9496;SDS011;4786;51.270;4.456;2023-06-22T02:55:35;4.07;;;3.77;;
9496;SDS011;4786;51.270;4.456;2023-06-22T02:58:01;5.97;;;4.63;;
9496;SDS011;4786;51.270;4.456;2023-06-22T03:00:30;6.63;;;4.20;;
9496;SDS011;4786;51.270;4.456;2023-06-22T03:02:57;4.43;;;4.03;;
9496;SDS011;4786;51.270;4.456;2023-06-22T03:05:23;5.67;;;4.30;;
9496;SDS011;4786;51.270;4.456;2023-06-22T03:07:49;5.67;;;4.43;;
9496;SDS011;4786;51.270;4.456;2023-06-22T03:10:16;4.47;;;3.87;;
9496;SDS011;4786;51.270;4.456;2023-06-22T03:12:42;4.77;;;4.00;;
9496;SDS011;4786;51.270;4.456;2023-06-22T03:15:09;7.33;;;4.03;;
9496;SDS011;4786;51.270;4.456;2023-06-22T03:17:37;6.73;;;4.57;;
9496;SDS011;4786;51.270;4.456;2023-06-22T03:20:06;5.60;;;4.23;;
9496;SDS011;4786;51.270;4.456;2023-06-22T03:22:37;5.23;;;4.83;;
9496;SDS011;4786;51.270;4.456;2023-06-22T03:25:04;5.90;;;5.30;;
9496;SDS011;4786;51.270;4.456;2023-06-22T03:27:39;5.83;;;5.33;;
9496;SDS011;4786;51.270;4.456;2023-06-22T03:30:06;8.43;;;6.27;;
9496;SDS011;4786;51.270;4.456;2023-06-22T03:32:34;7.07;;;6.10;;
9496;SDS011;4786;51.270;4.456;2023-06-22T03:35:00;6.77;;;6.10;;
9496;SDS011;4786;51.270;4.456;2023-06-22T03:37:27;7.20;;;6.50;;
9496;SDS011;4786;51.270;4.456;2023-06-22T03:39:53;8.17;;;6.90;;
9496;SDS011;4786;51.270;4.456;2023-06-22T03:42:19;7.63;;;6.90;;
9496;SDS011;4786;51.270;4.456;2023-06-22T03:44:45;7.17;;;6.17;;
9496;SDS011;4786;51.270;4.456;2023-06-22T03:47:12;6.73;;;6.13;;
9496;SDS011;4786;51.270;4.456;2023-06-22T03:49:38;6.97;;;6.27;;
9496;SDS011;4786;51.270;4.456;2023-06-22T03:52:05;7.60;;;6.80;;
9496;SDS011;4786;51.270;4.456;2023-06-22T03:54:31;8.67;;;6.40;;
9496;SDS011;4786;51.270;4.456;2023-06-22T03:56:57;7.43;;;6.63;;
9496;SDS011;4786;51.270;4.456;2023-06-22T03:59:24;9.00;;;6.87;;
9496;SDS011;4786;51.270;4.456;2023-06-22T04:01:51;7.93;;;7.00;;
9496;SDS011;4786;51.270;4.456;2023-06-22T04:04:19;7.83;;;7.03;;
9496;SDS011;4786;51.270;4.456;2023-06-22T04:06:46;8.80;;;7.90;;
9496;SDS011;4786;51.270;4.456;2023-06-22T04:09:11;8.50;;;7.67;;
9496;SDS011;4786;51.270;4.456;2023-06-22T04:11:38;9.53;;;6.00;;
9496;SDS011;4786;51.270;4.456;2023-06-22T04:14:04;5.60;;;5.10;;
9496;SDS011;4786;51.270;4.456;2023-06-22T04:16:30;6.63;;;5.90;;
9496;SDS011;4786;51.270;4.456;2023-06-22T04:18:56;6.53;;;5.30;;
9496;SDS011;4786;51.270;4.456;2023-06-22T04:21:22;8.23;;;5.27;;
9496;SDS011;4786;51.270;4.456;2023-06-22T04:23:48;6.40;;;5.73;;
9496;SDS011;4786;51.270;4.456;2023-06-22T04:26:14;7.07;;;6.17;;
9496;SDS011;4786;51.270;4.456;2023-06-22T04:28:40;7.13;;;5.63;;
9496;SDS011;4786;51.270;4.456;2023-06-22T04:31:07;7.73;;;5.50;;
9496;SDS011;4786;51.270;4.456;2023-06-22T04:33:33;7.90;;;5.97;;
9496;SDS011;4786;51.270;4.456;2023-06-22T04:35:59;8.70;;;5.87;;
9496;SDS011;4786;51.270;4.456;2023-06-22T04:38:28;6.23;;;5.73;;
9496;SDS011;4786;51.270;4.456;2023-06-22T04:40:58;7.30;;;5.97;;
9496;SDS011;4786;51.270;4.456;2023-06-22T04:43:26;11.37;;;6.90;;
9496;SDS011;4786;51.270;4.456;2023-06-22T04:45:55;9.87;;;6.87;;
9496;SDS011;4786;51.270;4.456;2023-06-22T04:48:22;7.57;;;6.27;;
9496;SDS011;4786;51.270;4.456;2023-06-22T04:50:48;6.60;;;5.93;;
9496;SDS011;4786;51.270;4.456;2023-06-22T04:53:14;7.20;;;6.50;;
9496;SDS011;4786;51.270;4.456;2023-06-22T04:55:40;8.30;;;6.37;;
9496;SDS011;4786;51.270;4.456;2023-06-22T04:58:06;7.70;;;6.90;;
9496;SDS011;4786;51.270;4.456;2023-06-22T05:00:32;11.13;;;9.87;;
9496;SDS011;4786;51.270;4.456;2023-06-22T05:03:01;9.83;;;8.93;;
9496;SDS011;4786;51.270;4.456;2023-06-22T05:05:28;11.00;;;9.90;;
9496;SDS011;4786;51.270;4.456;2023-06-22T05:07:56;10.27;;;9.37;;
9496;SDS011;4786;51.270;4.456;2023-06-22T05:10:24;10.60;;;9.60;;
9496;SDS011;4786;51.270;4.456;2023-06-22T05:12:51;10.97;;;9.87;;
9496;SDS011;4786;51.270;4.456;2023-06-22T05:15:17;12.15;;;9.40;;
9496;SDS011;4786;51.270;4.456;2023-06-22T05:17:47;12.18;;;10.82;;
9496;SDS011;4786;51.270;4.456;2023-06-22T05:20:13;9.75;;;8.85;;
9496;SDS011;4786;51.270;4.456;2023-06-22T05:22:39;9.68;;;8.73;;
9496;SDS011;4786;51.270;4.456;2023-06-22T05:25:07;11.23;;;10.13;;
9496;SDS011;4786;51.270;4.456;2023-06-22T05:27:35;10.63;;;9.70;;
9496;SDS011;4786;51.270;4.456;2023-06-22T05:30:09;11.23;;;8.90;;
9496;SDS011;4786;51.270;4.456;2023-06-22T05:32:35;9.07;;;7.82;;
9496;SDS011;4786;51.270;4.456;2023-06-22T05:35:02;10.63;;;9.52;;
9496;SDS011;4786;51.270;4.456;2023-06-22T05:37:29;9.52;;;8.68;;
9496;SDS011;4786;51.270;4.456;2023-06-22T05:39:55;10.27;;;9.27;;
9496;SDS011;4786;51.270;4.456;2023-06-22T05:42:22;11.10;;;9.60;;
9496;SDS011;4786;51.270;4.456;2023-06-22T05:44:48;9.70;;;8.90;;
9496;SDS011;4786;51.270;4.456;2023-06-22T05:47:15;10.32;;;9.30;;
9496;SDS011;4786;51.270;4.456;2023-06-22T05:49:41;11.23;;;10.13;;
9496;SDS011;4786;51.270;4.456;2023-06-22T05:52:07;11.13;;;9.63;;
9496;SDS011;4786;51.270;4.456;2023-06-22T05:54:33;10.43;;;9.50;;
9496;SDS011;4786;51.270;4.456;2023-06-22T05:57:00;9.50;;;8.60;;
9496;SDS011;4786;51.270;4.456;2023-06-22T05:59:26;9.30;;;8.60;;
9496;SDS011;4786;51.270;4.456;2023-06-22T06:01:52;9.85;;;8.95;;
9496;SDS011;4786;51.270;4.456;2023-06-22T06:04:18;11.02;;;9.80;;
9496;SDS011;4786;51.270;4.456;2023-06-22T06:06:44;12.43;;;11.20;;
9496;SDS011;4786;51.270;4.456;2023-06-22T06:09:12;10.27;;;9.25;;
9496;SDS011;4786;51.270;4.456;2023-06-22T06:11:39;10.27;;;9.35;;
9496;SDS011;4786;51.270;4.456;2023-06-22T06:14:05;11.23;;;10.13;;
9496;SDS011;4786;51.270;4.456;2023-06-22T06:16:31;11.60;;;10.52;;
9496;SDS011;4786;51.270;4.456;2023-06-22T06:18:57;11.43;;;10.35;;
9496;SDS011;4786;51.270;4.456;2023-06-22T06:21:23;10.40;;;9.30;;
9496;SDS011;4786;51.270;4.456;2023-06-22T06:23:49;14.48;;;11.77;;
9496;SDS011;4786;51.270;4.456;2023-06-22T06:26:15;10.48;;;9.43;;
9496;SDS011;4786;51.270;4.456;2023-06-22T06:28:42;11.25;;;10.10;;
9496;SDS011;4786;51.270;4.456;2023-06-22T06:31:08;15.55;;;12.02;;
9496;SDS011;4786;51.270;4.456;2023-06-22T06:33:35;13.52;;;12.20;;
9496;SDS011;4786;51.270;4.456;2023-06-22T06:36:01;11.90;;;10.63;;
9496;SDS011;4786;51.270;4.456;2023-06-22T06:38:28;10.98;;;9.88;;
9496;SDS011;4786;51.270;4.456;2023-06-22T06:40:55;10.20;;;9.20;;
9496;SDS011;4786;51.270;4.456;2023-06-22T06:43:22;13.75;;;11.00;;
9496;SDS011;4786;51.270;4.456;2023-06-22T06:45:48;13.63;;;12.43;;
9496;SDS011;4786;51.270;4.456;2023-06-22T06:48:14;12.13;;;11.02;;
9496;SDS011;4786;51.270;4.456;2023-06-22T06:50:40;11.40;;;10.35;;
9496;SDS011;4786;51.270;4.456;2023-06-22T06:53:08;10.15;;;9.15;;
9496;SDS011;4786;51.270;4.456;2023-06-22T06:55:34;11.73;;;10.63;;
9496;SDS011;4786;51.270;4.456;2023-06-22T06:58:01;9.90;;;9.00;;
9496;SDS011;4786;51.270;4.456;2023-06-22T07:00:29;12.32;;;11.13;;
9496;SDS011;4786;51.270;4.456;2023-06-22T07:02:54;10.88;;;9.80;;
9496;SDS011;4786;51.270;4.456;2023-06-22T07:05:21;14.07;;;12.50;;
9496;SDS011;4786;51.270;4.456;2023-06-22T07:07:47;13.23;;;12.02;;
9496;SDS011;4786;51.270;4.456;2023-06-22T07:10:13;13.30;;;12.00;;
9496;SDS011;4786;51.270;4.456;2023-06-22T07:12:40;12.38;;;11.25;;
9496;SDS011;4786;51.270;4.456;2023-06-22T07:15:07;14.15;;;12.65;;
9496;SDS011;4786;51.270;4.456;2023-06-22T07:17:34;10.68;;;9.77;;
9496;SDS011;4786;51.270;4.456;2023-06-22T07:20:00;10.27;;;9.43;;
9496;SDS011;4786;51.270;4.456;2023-06-22T07:22:27;13.10;;;12.00;;
9496;SDS011;4786;51.270;4.456;2023-06-22T07:24:53;14.25;;;12.75;;
9496;SDS011;4786;51.270;4.456;2023-06-22T07:27:19;13.95;;;12.60;;
9496;SDS011;4786;51.270;4.456;2023-06-22T07:29:46;14.23;;;12.80;;
9496;SDS011;4786;51.270;4.456;2023-06-22T07:32:12;14.35;;;12.95;;
9496;SDS011;4786;51.270;4.456;2023-06-22T07:34:38;13.05;;;11.85;;
9496;SDS011;4786;51.270;4.456;2023-06-22T07:37:04;13.65;;;12.35;;
9496;SDS011;4786;51.270;4.456;2023-06-22T07:39:30;15.13;;;13.63;;
9496;SDS011;4786;51.270;4.456;2023-06-22T07:41:56;14.43;;;13.02;;
9496;SDS011;4786;51.270;4.456;2023-06-22T07:44:23;16.13;;;14.48;;
9496;SDS011;4786;51.270;4.456;2023-06-22T07:46:49;14.45;;;12.95;;
9496;SDS011;4786;51.270;4.456;2023-06-22T07:49:16;14.05;;;12.60;;
9496;SDS011;4786;51.270;4.456;2023-06-22T07:51:43;14.52;;;13.15;;
9496;SDS011;4786;51.270;4.456;2023-06-22T07:54:09;15.32;;;13.63;;
9496;SDS011;4786;51.270;4.456;2023-06-22T07:56:36;14.15;;;12.75;;
9496;SDS011;4786;51.270;4.456;2023-06-22T07:59:02;15.52;;;13.95;;
9496;SDS011;4786;51.270;4.456;2023-06-22T08:01:28;14.02;;;12.82;;
9496;SDS011;4786;51.270;4.456;2023-06-22T08:03:55;14.75;;;13.35;;
9496;SDS011;4786;51.270;4.456;2023-06-22T08:06:20;13.50;;;12.13;;
9496;SDS011;4786;51.270;4.456;2023-06-22T08:08:47;14.88;;;12.85;;
9496;SDS011;4786;51.270;4.456;2023-06-22T08:11:13;17.13;;;13.20;;
9496;SDS011;4786;51.270;4.456;2023-06-22T08:13:40;14.27;;;12.88;;
9496;SDS011;4786;51.270;4.456;2023-06-22T08:16:06;14.27;;;12.88;;
9496;SDS011;4786;51.270;4.456;2023-06-22T08:18:32;13.25;;;11.93;;
9496;SDS011;4786;51.270;4.456;2023-06-22T08:20:58;16.05;;;14.60;;
9496;SDS011;4786;51.270;4.456;2023-06-22T08:23:24;13.75;;;12.35;;
9496;SDS011;4786;51.270;4.456;2023-06-22T08:25:50;14.50;;;13.20;;
9496;SDS011;4786;51.270;4.456;2023-06-22T08:28:16;14.85;;;13.43;;
9496;SDS011;4786;51.270;4.456;2023-06-22T08:30:42;15.52;;;14.02;;
9496;SDS011;4786;51.270;4.456;2023-06-22T08:33:08;16.10;;;14.38;;
9496;SDS011;4786;51.270;4.456;2023-06-22T08:35:34;15.32;;;13.90;;
9496;SDS011;4786;51.270;4.456;2023-06-22T08:38:00;13.93;;;12.57;;
9496;SDS011;4786;51.270;4.456;2023-06-22T08:40:27;15.15;;;13.65;;
9496;SDS011;4786;51.270;4.456;2023-06-22T08:42:54;13.48;;;12.30;;
9496;SDS011;4786;51.270;4.456;2023-06-22T08:45:20;15.00;;;13.27;;
9496;SDS011;4786;51.270;4.456;2023-06-22T08:47:45;26.67;;;13.75;;
9496;SDS011;4786;51.270;4.456;2023-06-22T08:50:12;15.68;;;13.00;;
9496;SDS011;4786;51.270;4.456;2023-06-22T08:52:38;15.18;;;13.60;;
9496;SDS011;4786;51.270;4.456;2023-06-22T08:55:06;14.57;;;13.15;;
9496;SDS011;4786;51.270;4.456;2023-06-22T08:57:33;17.35;;;14.02;;
9496;SDS011;4786;51.270;4.456;2023-06-22T08:59:59;12.30;;;11.02;;
9496;SDS011;4786;51.270;4.456;2023-06-22T09:02:26;17.60;;;13.77;;
9496;SDS011;4786;51.270;4.456;2023-06-22T09:04:55;14.23;;;12.45;;
9496;SDS011;4786;51.270;4.456;2023-06-22T09:07:22;14.32;;;12.93;;
9496;SDS011;4786;51.270;4.456;2023-06-22T09:09:49;14.55;;;13.05;;
9496;SDS011;4786;51.270;4.456;2023-06-22T09:12:16;13.63;;;12.20;;
9496;SDS011;4786;51.270;4.456;2023-06-22T09:14:44;16.60;;;14.18;;
9496;SDS011;4786;51.270;4.456;2023-06-22T09:17:12;16.17;;;14.50;;
9496;SDS011;4786;51.270;4.456;2023-06-22T09:19:39;15.43;;;13.65;;
9496;SDS011;4786;51.270;4.456;2023-06-22T09:22:05;17.23;;;15.52;;
9496;SDS011;4786;51.270;4.456;2023-06-22T09:24:31;14.75;;;13.15;;
9496;SDS011;4786;51.270;4.456;2023-06-22T09:26:58;23.70;;;15.40;;
9496;SDS011;4786;51.270;4.456;2023-06-22T09:29:24;15.38;;;13.80;;
9496;SDS011;4786;51.270;4.456;2023-06-22T09:31:50;14.40;;;12.90;;
9496;SDS011;4786;51.270;4.456;2023-06-22T09:34:18;14.05;;;11.85;;
9496;SDS011;4786;51.270;4.456;2023-06-22T09:36:45;14.20;;;12.88;;
9496;SDS011;4786;51.270;4.456;2023-06-22T09:39:11;12.38;;;11.07;;
9496;SDS011;4786;51.270;4.456;2023-06-22T09:41:37;14.70;;;11.18;;
9496;SDS011;4786;51.270;4.456;2023-06-22T09:44:03;11.35;;;10.25;;
9496;SDS011;4786;51.270;4.456;2023-06-22T09:46:28;10.65;;;9.57;;
9496;SDS011;4786;51.270;4.456;2023-06-22T09:48:55;12.05;;;10.85;;
9496;SDS011;4786;51.270;4.456;2023-06-22T09:51:21;10.80;;;9.77;;
9496;SDS011;4786;51.270;4.456;2023-06-22T09:53:48;10.50;;;9.38;;
9496;SDS011;4786;51.270;4.456;2023-06-22T09:56:15;10.60;;;8.88;;
9496;SDS011;4786;51.270;4.456;2023-06-22T09:58:45;11.57;;;9.27;;
9496;SDS011;4786;51.270;4.456;2023-06-22T10:01:12;12.63;;;9.20;;
9496;SDS011;4786;51.270;4.456;2023-06-22T10:03:58;11.27;;;10.10;;
9496;SDS011;4786;51.270;4.456;2023-06-22T10:06:24;10.43;;;9.35;;
9496;SDS011;4786;51.270;4.456;2023-06-22T10:08:51;8.93;;;8.02;;
9496;SDS011;4786;51.270;4.456;2023-06-22T10:11:17;9.48;;;8.60;;
9496;SDS011;4786;51.270;4.456;2023-06-22T10:13:42;10.00;;;7.57;;
9496;SDS011;4786;51.270;4.456;2023-06-22T10:16:09;9.20;;;8.25;;
9496;SDS011;4786;51.270;4.456;2023-06-22T10:18:34;9.63;;;8.70;;
9496;SDS011;4786;51.270;4.456;2023-06-22T10:21:00;8.63;;;7.75;;
9496;SDS011;4786;51.270;4.456;2023-06-22T10:23:27;8.52;;;7.63;;
9496;SDS011;4786;51.270;4.456;2023-06-22T10:25:53;8.73;;;7.80;;
9496;SDS011;4786;51.270;4.456;2023-06-22T10:28:19;10.85;;;7.95;;
9496;SDS011;4786;51.270;4.456;2023-06-22T10:30:45;9.23;;;8.30;;
9496;SDS011;4786;51.270;4.456;2023-06-22T10:33:11;8.52;;;7.72;;
9496;SDS011;4786;51.270;4.456;2023-06-22T10:35:37;7.88;;;7.25;;
9496;SDS011;4786;51.270;4.456;2023-06-22T10:38:04;7.97;;;7.18;;
9496;SDS011;4786;51.270;4.456;2023-06-22T10:40:30;7.53;;;6.85;;
9496;SDS011;4786;51.270;4.456;2023-06-22T10:42:56;10.80;;;8.55;;
9496;SDS011;4786;51.270;4.456;2023-06-22T10:45:22;9.00;;;7.75;;
9496;SDS011;4786;51.270;4.456;2023-06-22T10:47:48;8.80;;;8.00;;
9496;SDS011;4786;51.270;4.456;2023-06-22T10:50:14;8.50;;;7.35;;
9496;SDS011;4786;51.270;4.456;2023-06-22T10:52:40;9.18;;;8.00;;
9496;SDS011;4786;51.270;4.456;2023-06-22T10:55:09;10.35;;;7.85;;
9496;SDS011;4786;51.270;4.456;2023-06-22T10:57:35;9.07;;;7.90;;
9496;SDS011;4786;51.270;4.456;2023-06-22T11:00:02;10.30;;;9.30;;
9496;SDS011;4786;51.270;4.456;2023-06-22T11:02:30;11.15;;;9.15;;
9496;SDS011;4786;51.270;4.456;2023-06-22T11:04:56;9.82;;;8.55;;
9496;SDS011;4786;51.270;4.456;2023-06-22T11:07:25;11.48;;;9.55;;
9496;SDS011;4786;51.270;4.456;2023-06-22T11:09:52;11.05;;;9.63;;
9496;SDS011;4786;51.270;4.456;2023-06-22T11:12:18;13.65;;;9.60;;
9496;SDS011;4786;51.270;4.456;2023-06-22T11:14:44;10.35;;;9.20;;
9496;SDS011;4786;51.270;4.456;2023-06-22T11:17:09;11.60;;;10.48;;
9496;SDS011;4786;51.270;4.456;2023-06-22T11:19:35;12.20;;;11.00;;
9496;SDS011;4786;51.270;4.456;2023-06-22T11:22:01;13.15;;;11.80;;
9496;SDS011;4786;51.270;4.456;2023-06-22T11:24:27;11.82;;;10.73;;
9496;SDS011;4786;51.270;4.456;2023-06-22T11:26:53;12.65;;;11.48;;
9496;SDS011;4786;51.270;4.456;2023-06-22T11:29:19;11.52;;;10.43;;
9496;SDS011;4786;51.270;4.456;2023-06-22T11:31:45;14.40;;;12.90;;
9496;SDS011;4786;51.270;4.456;2023-06-22T11:34:11;13.73;;;12.40;;
9496;SDS011;4786;51.270;4.456;2023-06-22T11:36:37;14.52;;;11.82;;
9496;SDS011;4786;51.270;4.456;2023-06-22T11:39:03;14.38;;;12.95;;
9496;SDS011;4786;51.270;4.456;2023-06-22T11:41:30;13.43;;;12.02;;
9496;SDS011;4786;51.270;4.456;2023-06-22T11:43:55;13.18;;;12.00;;
9496;SDS011;4786;51.270;4.456;2023-06-22T11:46:21;14.88;;;13.30;;
9496;SDS011;4786;51.270;4.456;2023-06-22T11:48:47;15.27;;;13.80;;
9496;SDS011;4786;51.270;4.456;2023-06-22T11:51:13;15.02;;;13.63;;
9496;SDS011;4786;51.270;4.456;2023-06-22T11:53:39;15.75;;;14.18;;
9496;SDS011;4786;51.270;4.456;2023-06-22T11:56:05;16.55;;;15.05;;
9496;SDS011;4786;51.270;4.456;2023-06-22T11:58:31;15.68;;;14.15;;
9496;SDS011;4786;51.270;4.456;2023-06-22T12:00:57;18.83;;;16.88;;
9496;SDS011;4786;51.270;4.456;2023-06-22T12:03:23;18.92;;;16.92;;
9496;SDS011;4786;51.270;4.456;2023-06-22T12:05:50;18.92;;;17.25;;
9496;SDS011;4786;51.270;4.456;2023-06-22T12:08:19;16.70;;;15.07;;
9496;SDS011;4786;51.270;4.456;2023-06-22T12:10:45;17.90;;;16.25;;
9496;SDS011;4786;51.270;4.456;2023-06-22T12:13:10;15.35;;;13.98;;
9496;SDS011;4786;51.270;4.456;2023-06-22T12:15:36;17.10;;;15.55;;
9496;SDS011;4786;51.270;4.456;2023-06-22T12:18:02;17.05;;;15.40;;
9496;SDS011;4786;51.270;4.456;2023-06-22T12:20:28;16.92;;;15.32;;
9496;SDS011;4786;51.270;4.456;2023-06-22T12:22:54;18.27;;;16.55;;
9496;SDS011;4786;51.270;4.456;2023-06-22T12:25:23;18.00;;;16.20;;
9496;SDS011;4786;51.270;4.456;2023-06-22T12:27:49;22.02;;;17.45;;
9496;SDS011;4786;51.270;4.456;2023-06-22T12:30:15;17.38;;;15.93;;
9496;SDS011;4786;51.270;4.456;2023-06-22T12:32:41;19.73;;;15.80;;
9496;SDS011;4786;51.270;4.456;2023-06-22T12:35:07;16.00;;;14.70;;
9496;SDS011;4786;51.270;4.456;2023-06-22T12:37:38;17.88;;;16.38;;
9496;SDS011;4786;51.270;4.456;2023-06-22T12:40:06;17.92;;;16.27;;
9496;SDS011;4786;51.270;4.456;2023-06-22T12:42:32;16.45;;;15.02;;
9496;SDS011;4786;51.270;4.456;2023-06-22T12:44:58;16.83;;;15.35;;
9496;SDS011;4786;51.270;4.456;2023-06-22T12:47:24;18.83;;;17.02;;
9496;SDS011;4786;51.270;4.456;2023-06-22T12:49:50;16.40;;;14.98;;
9496;SDS011;4786;51.270;4.456;2023-06-22T12:52:16;17.48;;;15.98;;
9496;SDS011;4786;51.270;4.456;2023-06-22T12:54:41;16.33;;;14.93;;
9496;SDS011;4786;51.270;4.456;2023-06-22T12:57:07;16.23;;;14.63;;
9496;SDS011;4786;51.270;4.456;2023-06-22T12:59:33;16.45;;;15.05;;
9496;SDS011;4786;51.270;4.456;2023-06-22T13:01:59;17.27;;;15.68;;
9496;SDS011;4786;51.270;4.456;2023-06-22T13:04:24;15.73;;;14.20;;
9496;SDS011;4786;51.270;4.456;2023-06-22T13:06:50;15.25;;;13.68;;
9496;SDS011;4786;51.270;4.456;2023-06-22T13:09:19;17.80;;;16.10;;
9496;SDS011;4786;51.270;4.456;2023-06-22T13:11:45;17.30;;;15.70;;
9496;SDS011;4786;51.270;4.456;2023-06-22T13:14:11;17.33;;;15.75;;
9496;SDS011;4786;51.270;4.456;2023-06-22T13:16:36;16.92;;;15.32;;
9496;SDS011;4786;51.270;4.456;2023-06-22T13:19:02;16.80;;;15.27;;
9496;SDS011;4786;51.270;4.456;2023-06-22T13:21:29;17.63;;;16.13;;
9496;SDS011;4786;51.270;4.456;2023-06-22T13:23:55;19.52;;;17.85;;
9496;SDS011;4786;51.270;4.456;2023-06-22T13:26:21;20.48;;;18.50;;
9496;SDS011;4786;51.270;4.456;2023-06-22T13:28:47;19.88;;;17.98;;
9496;SDS011;4786;51.270;4.456;2023-06-22T13:31:13;19.27;;;17.42;;
9496;SDS011;4786;51.270;4.456;2023-06-22T13:33:38;18.27;;;16.65;;
9496;SDS011;4786;51.270;4.456;2023-06-22T13:36:05;17.73;;;16.13;;
9496;SDS011;4786;51.270;4.456;2023-06-22T13:38:32;18.35;;;16.08;;
9496;SDS011;4786;51.270;4.456;2023-06-22T13:40:59;17.52;;;15.82;;
9496;SDS011;4786;51.270;4.456;2023-06-22T13:43:26;15.52;;;14.07;;
9496;SDS011;4786;51.270;4.456;2023-06-22T13:45:52;20.08;;;18.10;;
9496;SDS011;4786;51.270;4.456;2023-06-22T13:48:19;19.50;;;17.80;;
9496;SDS011;4786;51.270;4.456;2023-06-22T13:50:45;18.13;;;16.23;;
9496;SDS011;4786;51.270;4.456;2023-06-22T13:53:11;18.80;;;17.05;;
9496;SDS011;4786;51.270;4.456;2023-06-22T13:55:37;19.75;;;17.92;;
9496;SDS011;4786;51.270;4.456;2023-06-22T13:58:02;18.90;;;17.00;;
9496;SDS011;4786;51.270;4.456;2023-06-22T14:00:28;20.73;;;18.83;;
9496;SDS011;4786;51.270;4.456;2023-06-22T14:02:54;20.52;;;18.63;;
9496;SDS011;4786;51.270;4.456;2023-06-22T14:05:21;18.08;;;16.48;;
9496;SDS011;4786;51.270;4.456;2023-06-22T14:07:47;21.73;;;19.55;;
9496;SDS011;4786;51.270;4.456;2023-06-22T14:10:12;20.92;;;19.05;;
9496;SDS011;4786;51.270;4.456;2023-06-22T14:12:38;20.58;;;18.48;;
9496;SDS011;4786;51.270;4.456;2023-06-22T14:15:04;19.42;;;17.73;;
9496;SDS011;4786;51.270;4.456;2023-06-22T14:17:30;19.92;;;17.80;;
9496;SDS011;4786;51.270;4.456;2023-06-22T14:19:56;20.23;;;18.25;;
9496;SDS011;4786;51.270;4.456;2023-06-22T14:22:22;17.35;;;15.85;;
9496;SDS011;4786;51.270;4.456;2023-06-22T14:24:48;16.63;;;15.10;;
9496;SDS011;4786;51.270;4.456;2023-06-22T14:27:14;17.33;;;15.70;;
9496;SDS011;4786;51.270;4.456;2023-06-22T14:29:40;18.13;;;16.30;;
9496;SDS011;4786;51.270;4.456;2023-06-22T14:32:07;20.80;;;18.83;;
9496;SDS011;4786;51.270;4.456;2023-06-22T14:34:33;21.25;;;19.08;;
9496;SDS011;4786;51.270;4.456;2023-06-22T14:37:05;20.27;;;18.17;;
9496;SDS011;4786;51.270;4.456;2023-06-22T14:39:31;19.08;;;17.23;;
9496;SDS011;4786;51.270;4.456;2023-06-22T14:41:58;19.67;;;17.83;;
9496;SDS011;4786;51.270;4.456;2023-06-22T14:44:25;19.17;;;17.38;;
9496;SDS011;4786;51.270;4.456;2023-06-22T14:46:51;19.75;;;17.85;;
9496;SDS011;4786;51.270;4.456;2023-06-22T14:49:17;19.50;;;17.80;;
9496;SDS011;4786;51.270;4.456;2023-06-22T14:51:42;17.55;;;16.00;;
9496;SDS011;4786;51.270;4.456;2023-06-22T14:54:08;19.17;;;17.42;;
9496;SDS011;4786;51.270;4.456;2023-06-22T14:56:34;17.42;;;15.90;;
9496;SDS011;4786;51.270;4.456;2023-06-22T14:59:00;19.13;;;17.38;;
9496;SDS011;4786;51.270;4.456;2023-06-22T15:01:25;17.00;;;15.43;;
9496;SDS011;4786;51.270;4.456;2023-06-22T15:03:51;19.75;;;17.88;;
9496;SDS011;4786;51.270;4.456;2023-06-22T15:06:17;19.85;;;18.13;;
9496;SDS011;4786;51.270;4.456;2023-06-22T15:08:43;19.48;;;17.60;;
9496;SDS011;4786;51.270;4.456;2023-06-22T15:11:09;18.95;;;17.17;;
9496;SDS011;4786;51.270;4.456;2023-06-22T15:13:38;18.52;;;16.88;;